Lyster, Canada
Current Conditions -  °F | °C
As of 12:00 PM on Monday 22 Dec 2014 (Local Time) from CYQB Reporting Station
Light Snow Light Snow  
Wind Chill: -11°   Ceiling: 2700
Heat Index: -7°   Visibility: 8mi
Dew Point: -10°   Wind: 5mph
Humidity: 80%   Direction: 10°N
Pressure: 30.4"   Gusts: NA
Location:  46.37°N, 71.62°W
Report Text: CYQB 221700Z 01004KT 8SM -SN OVC027 M07/M10 A3040 RMK SC8 SLP302
Loading
Personal Weather Stations






























Interactive Weather Map New forecast layout! Learn more

10-Day Weather Forecast

Advertisements
Track Severe Weather on mobile